Time;durP1;ratioP1;P1;durP2;ratioP2;P2;SDS_P1;SDS_P2;PMS_P1;PMS_P2;Temp;Humidity;BMP_temperature;BMP_pressure;BME280_temperature;BME280_humidity;BME280_pressure;Samples;Min_cycle;Max_cycle;Signal;HPM_P1;HPM_P2
2023/05/10 00:01:04;;;;;;;1.70;1.60;;;;;;;;;;5025641;28;20073;-48
2023/05/10 00:03:29;;;;;;;1.85;1.70;;;;;;;;;;5024145;28;20490;-52
2023/05/10 00:05:55;;;;;;;2.53;1.40;;;;;;;;;;5023821;28;20037;-51
2023/05/10 00:08:20;;;;;;;4.53;1.67;;;;;;;;;;5023669;28;20109;-54
2023/05/10 00:10:46;;;;;;;1.48;1.38;;;;;;;;;;5025622;28;20049;-44
2023/05/10 00:13:11;;;;;;;1.75;1.65;;;;;;;;;;5024784;28;20024;-43
2023/05/10 00:15:37;;;;;;;2.20;1.67;;;;;;;;;;5021183;28;20049;-48
2023/05/10 00:18:02;;;;;;;6.88;1.63;;;;;;;;;;5024867;28;20037;-46
2023/05/10 00:20:27;;;;;;;5.38;1.77;;;;;;;;;;5024449;28;20068;-44
2023/05/10 00:22:53;;;;;;;3.55;1.50;;;;;;;;;;5021997;28;20029;-47
2023/05/10 00:25:18;;;;;;;2.47;1.30;;;;;;;;;;5023148;28;20032;-42
2023/05/10 00:27:44;;;;;;;1.63;1.52;;;;;;;;;;5019645;28;20064;-47
2023/05/10 00:30:09;;;;;;;1.73;1.60;;;;;;;;;;5025008;28;21161;-44
2023/05/10 00:32:35;;;;;;;3.17;1.50;;;;;;;;;;5021970;28;20072;-43
2023/05/10 00:35:00;;;;;;;1.77;1.50;;;;;;;;;;5026978;28;20029;-43
2023/05/10 00:37:26;;;;;;;2.33;2.13;;;;;;;;;;5022211;28;20490;-43
2023/05/10 00:39:51;;;;;;;2.10;2.00;;;;;;;;;;5024080;28;20026;-42
2023/05/10 00:42:16;;;;;;;2.00;1.90;;;;;;;;;;5023275;28;20555;-44
2023/05/10 00:44:42;;;;;;;2.63;1.92;;;;;;;;;;5021312;28;20025;-43
2023/05/10 00:47:08;;;;;;;2.10;1.85;;;;;;;;;;5025322;28;20034;-42
2023/05/10 00:49:34;;;;;;;9.02;2.28;;;;;;;;;;5026661;28;20100;-43
2023/05/10 00:51:59;;;;;;;4.07;2.17;;;;;;;;;;5023023;28;20068;-46
2023/05/10 00:54:25;;;;;;;7.63;2.10;;;;;;;;;;5025447;28;20057;-46
2023/05/10 00:56:51;;;;;;;2.60;2.10;;;;;;;;;;5022295;28;20498;-46
2023/05/10 00:59:17;;;;;;;2.33;2.13;;;;;;;;;;5024032;28;20061;-43
2023/05/10 01:01:44;;;;;;;6.97;2.05;;;;;;;;;;5023541;28;20044;-43
2023/05/10 01:04:12;;;;;;;2.13;1.92;;;;;;;;;;5022258;28;20060;-43
2023/05/10 01:06:37;;;;;;;1.88;1.77;;;;;;;;;;5020457;28;20495;-43
2023/05/10 01:09:03;;;;;;;2.65;1.83;;;;;;;;;;5023877;28;20068;-43
2023/05/10 01:11:28;;;;;;;1.60;1.50;;;;;;;;;;5022596;28;20034;-44
2023/05/10 01:13:57;;;;;;;2.42;1.90;;;;;;;;;;5024040;28;20037;-44
2023/05/10 01:16:24;;;;;;;4.68;1.80;;;;;;;;;;5020367;28;20061;-45
2023/05/10 01:18:50;;;;;;;1.75;1.65;;;;;;;;;;5025589;28;20032;-46
2023/05/10 01:21:37;;;;;;;3.38;1.73;;;;;;;;;;5025456;28;20037;-43
2023/05/10 01:24:21;;;;;;;1.67;1.50;;;;;;;;;;5025134;28;20036;-43
2023/05/10 01:27:05;;;;;;;2.22;1.65;;;;;;;;;;5022854;28;20596;-45
2023/05/10 01:29:58;;;;;;;1.88;1.50;;;;;;;;;;5024883;28;20528;-44
2023/05/10 01:32:55;;;;;;;1.92;1.58;;;;;;;;;;5020066;28;20430;-46
2023/05/10 01:35:47;;;;;;;2.53;1.63;;;;;;;;;;5022749;28;20045;-43
2023/05/10 01:38:37;;;;;;;1.75;1.65;;;;;;;;;;4965383;28;20047;-42
2023/05/10 01:41:16;;;;;;;2.58;1.50;;;;;;;;;;4963138;28;20054;-46
2023/05/10 01:44:06;;;;;;;1.60;1.30;;;;;;;;;;4963111;28;20062;-45
2023/05/10 01:46:39;;;;;;;1.70;1.30;;;;;;;;;;4946812;28;20483;-47
2023/05/10 01:49:18;;;;;;;5.20;1.50;;;;;;;;;;4962407;28;20047;-43
2023/05/10 01:51:56;;;;;;;1.33;1.20;;;;;;;;;;4963624;28;20793;-43
2023/05/10 01:54:24;;;;;;;2.80;1.10;;;;;;;;;;4961287;28;20047;-48
2023/05/10 01:56:55;;;;;;;1.17;1.02;;;;;;;;;;4965255;28;20035;-45
2023/05/10 01:59:22;;;;;;;1.42;1.30;;;;;;;;;;4962681;28;20562;-43
2023/05/10 02:01:49;;;;;;;1.33;0.90;;;;;;;;;;4962996;28;20050;-42
2023/05/10 02:04:17;;;;;;;3.80;1.00;;;;;;;;;;4961652;28;20416;-44
2023/05/10 02:06:43;;;;;;;1.52;1.23;;;;;;;;;;4963193;28;21948;-43
2023/05/10 02:09:11;;;;;;;2.10;1.00;;;;;;;;;;4965134;28;20479;-49
2023/05/10 02:11:39;;;;;;;1.13;1.08;;;;;;;;;;4964393;28;20047;-45
2023/05/10 02:14:09;;;;;;;3.75;1.30;;;;;;;;;;4969613;28;20069;-48
2023/05/10 02:16:35;;;;;;;1.23;1.08;;;;;;;;;;5022453;28;20033;-44
2023/05/10 02:19:01;;;;;;;2.20;1.02;;;;;;;;;;5019446;28;20036;-44
2023/05/10 02:21:28;;;;;;;3.28;1.08;;;;;;;;;;5023722;28;20058;-47
2023/05/10 02:23:54;;;;;;;1.42;1.00;;;;;;;;;;5023166;28;20037;-46
2023/05/10 02:26:21;;;;;;;0.85;0.85;;;;;;;;;;5019289;28;20446;-44
2023/05/10 02:28:48;;;;;;;3.53;1.00;;;;;;;;;;5020839;28;20030;-46
2023/05/10 02:31:14;;;;;;;3.22;0.90;;;;;;;;;;5022843;28;20629;-43
2023/05/10 02:33:41;;;;;;;1.95;0.70;;;;;;;;;;5022299;28;20209;-43
2023/05/10 02:36:08;;;;;;;0.77;0.70;;;;;;;;;;5019755;28;20061;-43
2023/05/10 02:38:35;;;;;;;0.65;0.65;;;;;;;;;;5020778;28;20018;-45
2023/05/10 02:41:02;;;;;;;1.45;1.00;;;;;;;;;;5017620;28;20053;-44
2023/05/10 02:43:31;;;;;;;0.82;0.73;;;;;;;;;;5022953;28;20036;-49
2023/05/10 02:45:56;;;;;;;0.65;0.65;;;;;;;;;;5019965;28;20037;-43
2023/05/10 02:48:22;;;;;;;0.98;0.70;;;;;;;;;;5021776;28;20044;-44
2023/05/10 02:50:52;;;;;;;1.13;0.85;;;;;;;;;;5024346;28;20427;-43
2023/05/10 02:53:23;;;;;;;0.80;0.75;;;;;;;;;;5021428;28;20030;-43
2023/05/10 02:55:51;;;;;;;1.75;0.95;;;;;;;;;;5022876;28;20053;-44
2023/05/10 02:58:19;;;;;;;2.95;0.90;;;;;;;;;;5022288;28;20038;-45
2023/05/10 03:00:45;;;;;;;1.23;0.82;;;;;;;;;;5025346;28;20103;-42
2023/05/10 03:03:10;;;;;;;1.48;0.98;;;;;;;;;;5024484;28;20022;-47
2023/05/10 03:05:36;;;;;;;2.05;1.00;;;;;;;;;;5024100;28;20125;-43
2023/05/10 03:08:03;;;;;;;0.85;0.85;;;;;;;;;;5027629;28;20022;-43
2023/05/10 03:10:30;;;;;;;1.13;0.90;;;;;;;;;;5026760;28;20473;-45
2023/05/10 03:13:22;;;;;;;1.65;1.10;;;;;;;;;;5025314;28;20128;-42
2023/05/10 03:16:07;;;;;;;3.35;1.08;;;;;;;;;;5023451;28;20145;-43
2023/05/10 03:19:04;;;;;;;2.65;1.10;;;;;;;;;;5023614;28;20963;-43
2023/05/10 03:21:31;;;;;;;1.30;1.20;;;;;;;;;;5023893;28;20045;-43
2023/05/10 03:24:05;;;;;;;1.55;0.98;;;;;;;;;;5027771;28;20108;-46
2023/05/10 03:26:30;;;;;;;1.95;1.00;;;;;;;;;;5024423;28;20251;-48
2023/05/10 03:28:58;;;;;;;1.63;1.02;;;;;;;;;;5023805;28;20124;-42
2023/05/10 03:31:24;;;;;;;1.30;0.82;;;;;;;;;;5024899;28;20127;-46
2023/05/10 03:33:50;;;;;;;2.17;1.15;;;;;;;;;;5025747;28;20118;-44
2023/05/10 03:36:16;;;;;;;5.07;0.80;;;;;;;;;;5027430;28;20034;-44
2023/05/10 03:38:42;;;;;;;1.88;0.80;;;;;;;;;;5025331;28;20116;-42
2023/05/10 03:41:07;;;;;;;0.75;0.75;;;;;;;;;;5027097;28;20050;-43
2023/05/10 03:43:33;;;;;;;1.15;0.73;;;;;;;;;;5025916;28;20116;-43
2023/05/10 03:45:58;;;;;;;1.70;0.98;;;;;;;;;;5026245;28;20065;-47
2023/05/10 03:48:24;;;;;;;0.80;0.80;;;;;;;;;;5022601;28;20025;-43
2023/05/10 03:50:49;;;;;;;1.08;0.90;;;;;;;;;;5024277;28;20038;-47
2023/05/10 03:53:15;;;;;;;2.53;0.73;;;;;;;;;;5025112;28;20033;-46
2023/05/10 03:55:40;;;;;;;2.17;1.02;;;;;;;;;;5025652;28;20048;-43
2023/05/10 03:58:06;;;;;;;1.65;1.00;;;;;;;;;;5028279;28;20053;-44
2023/05/10 04:00:32;;;;;;;3.10;1.10;;;;;;;;;;5022971;28;20033;-43
2023/05/10 04:02:57;;;;;;;1.40;0.95;;;;;;;;;;5024496;28;20485;-47
2023/05/10 04:05:23;;;;;;;2.30;1.00;;;;;;;;;;5024741;28;20022;-51
2023/05/10 04:07:49;;;;;;;1.73;0.80;;;;;;;;;;5020543;28;20014;-47
2023/05/10 04:10:15;;;;;;;2.25;0.80;;;;;;;;;;5024820;28;20022;-43
2023/05/10 04:12:41;;;;;;;1.30;0.80;;;;;;;;;;5022876;28;20036;-46
2023/05/10 04:15:07;;;;;;;4.47;1.00;;;;;;;;;;5024114;28;20413;-45
2023/05/10 04:17:32;;;;;;;2.38;0.80;;;;;;;;;;5021108;28;20401;-42
2023/05/10 04:19:58;;;;;;;0.73;0.73;;;;;;;;;;5023224;28;20026;-44
2023/05/10 04:22:23;;;;;;;2.22;1.00;;;;;;;;;;5022094;28;20119;-43
2023/05/10 04:24:49;;;;;;;0.70;0.70;;;;;;;;;;5022116;28;20061;-43
2023/05/10 04:27:14;;;;;;;1.73;0.90;;;;;;;;;;5024027;28;20030;-42
2023/05/10 04:29:39;;;;;;;4.95;0.90;;;;;;;;;;5022531;28;20547;-43
2023/05/10 04:32:05;;;;;;;0.60;0.52;;;;;;;;;;5022521;28;20049;-42
2023/05/10 04:34:30;;;;;;;0.65;0.65;;;;;;;;;;5025536;28;20466;-48
2023/05/10 04:36:55;;;;;;;0.82;0.82;;;;;;;;;;5020317;28;20048;-45
2023/05/10 04:39:21;;;;;;;3.45;0.70;;;;;;;;;;5022335;28;20497;-43
2023/05/10 04:41:46;;;;;;;1.60;0.90;;;;;;;;;;5024643;28;20033;-44
2023/05/10 04:44:11;;;;;;;3.78;0.98;;;;;;;;;;5023062;28;20018;-42
2023/05/10 04:46:37;;;;;;;1.48;1.30;;;;;;;;;;5021384;28;20072;-43
2023/05/10 04:49:02;;;;;;;1.08;1.08;;;;;;;;;;5024014;28;20037;-42
2023/05/10 04:51:28;;;;;;;1.23;0.98;;;;;;;;;;5024678;28;20494;-46
2023/05/10 04:53:53;;;;;;;2.90;0.95;;;;;;;;;;5024300;28;20040;-43
2023/05/10 04:56:19;;;;;;;1.45;1.08;;;;;;;;;;5020837;28;20048;-43
2023/05/10 04:58:44;;;;;;;0.95;0.90;;;;;;;;;;5023722;28;20037;-43
2023/05/10 05:01:10;;;;;;;1.02;1.00;;;;;;;;;;5022686;28;20476;-45
2023/05/10 05:03:36;;;;;;;4.00;0.90;;;;;;;;;;5023778;28;20030;-42
2023/05/10 05:06:02;;;;;;;0.63;0.63;;;;;;;;;;5023314;28;20034;-44
2023/05/10 05:08:27;;;;;;;1.50;0.90;;;;;;;;;;5025166;28;20045;-45
2023/05/10 05:10:53;;;;;;;0.82;0.73;;;;;;;;;;5022674;28;20053;-49
2023/05/10 05:13:18;;;;;;;3.42;0.85;;;;;;;;;;5023582;28;20064;-43
2023/05/10 05:15:44;;;;;;;9.35;0.98;;;;;;;;;;5024833;28;20069;-42
2023/05/10 05:18:09;;;;;;;1.63;1.00;;;;;;;;;;5024302;28;20033;-44
2023/05/10 05:20:35;;;;;;;1.92;0.70;;;;;;;;;;5023172;28;20033;-48
2023/05/10 05:23:01;;;;;;;1.33;1.10;;;;;;;;;;5024246;28;20091;-48
2023/05/10 05:25:26;;;;;;;1.02;0.98;;;;;;;;;;5023652;28;20029;-44
2023/05/10 05:27:51;;;;;;;3.03;2.03;;;;;;;;;;5021613;28;21213;-46
2023/05/10 05:30:17;;;;;;;0.73;0.70;;;;;;;;;;5021005;28;20087;-42
2023/05/10 05:32:42;;;;;;;2.00;0.90;;;;;;;;;;5023046;28;20029;-43
2023/05/10 05:35:08;;;;;;;1.02;0.82;;;;;;;;;;5021439;28;20044;-43
2023/05/10 05:37:33;;;;;;;1.42;0.80;;;;;;;;;;5020323;28;20041;-46
2023/05/10 05:40:00;;;;;;;2.03;0.70;;;;;;;;;;5020132;28;20028;-48
2023/05/10 05:42:26;;;;;;;2.95;0.65;;;;;;;;;;5022633;28;20065;-45
2023/05/10 05:44:51;;;;;;;0.60;0.60;;;;;;;;;;5020445;28;20064;-43
2023/05/10 05:47:17;;;;;;;2.08;0.60;;;;;;;;;;5022827;28;20038;-45
2023/05/10 05:49:45;;;;;;;12.38;1.00;;;;;;;;;;5021444;28;20026;-46
2023/05/10 05:52:10;;;;;;;3.90;0.85;;;;;;;;;;5022583;28;20038;-49
2023/05/10 05:54:36;;;;;;;4.38;1.08;;;;;;;;;;5021033;28;20035;-43
2023/05/10 05:57:01;;;;;;;0.65;0.65;;;;;;;;;;5021560;28;20045;-44
2023/05/10 05:59:27;;;;;;;1.20;0.90;;;;;;;;;;5023595;28;20450;-44
2023/05/10 06:01:52;;;;;;;3.20;1.23;;;;;;;;;;5021941;28;20410;-45
2023/05/10 06:04:18;;;;;;;0.80;0.80;;;;;;;;;;5024804;28;20519;-49
2023/05/10 06:06:44;;;;;;;2.95;0.88;;;;;;;;;;5019874;28;20477;-43
2023/05/10 06:09:10;;;;;;;4.45;0.75;;;;;;;;;;5022662;28;20069;-45
2023/05/10 06:11:35;;;;;;;1.40;0.70;;;;;;;;;;5023894;28;20040;-46
2023/05/10 06:14:03;;;;;;;13.43;1.35;;;;;;;;;;5023101;28;20034;-42
2023/05/10 06:16:28;;;;;;;2.60;0.90;;;;;;;;;;5021160;28;20038;-44
2023/05/10 06:18:54;;;;;;;3.80;1.08;;;;;;;;;;5019405;28;20925;-45
2023/05/10 06:21:19;;;;;;;6.35;0.93;;;;;;;;;;5021491;28;20045;-46
2023/05/10 06:23:45;;;;;;;2.38;0.93;;;;;;;;;;5022710;28;20466;-43
2023/05/10 06:26:10;;;;;;;1.45;0.65;;;;;;;;;;5018531;28;20030;-44
2023/05/10 06:28:38;;;;;;;2.75;1.00;;;;;;;;;;5021601;28;20052;-46
2023/05/10 06:31:03;;;;;;;7.50;0.90;;;;;;;;;;5022699;28;20037;-43
2023/05/10 06:33:29;;;;;;;1.48;0.93;;;;;;;;;;5022452;28;20536;-43
2023/05/10 06:35:54;;;;;;;6.30;1.33;;;;;;;;;;5022296;28;20117;-45
2023/05/10 06:38:20;;;;;;;2.90;0.85;;;;;;;;;;5021087;28;20032;-48
2023/05/10 06:40:45;;;;;;;3.83;0.75;;;;;;;;;;5020197;28;20069;-45
2023/05/10 06:43:10;;;;;;;1.98;0.80;;;;;;;;;;5023303;28;20029;-44
2023/05/10 06:45:36;;;;;;;1.23;1.02;;;;;;;;;;5022698;28;20505;-48
2023/05/10 06:48:01;;;;;;;3.45;1.00;;;;;;;;;;5022018;28;20026;-48
2023/05/10 06:50:27;;;;;;;3.88;1.20;;;;;;;;;;5021363;28;20111;-43
2023/05/10 06:52:52;;;;;;;5.40;1.02;;;;;;;;;;5024043;28;20030;-42
2023/05/10 06:55:17;;;;;;;6.30;1.65;;;;;;;;;;5020143;28;20033;-46
2023/05/10 06:57:43;;;;;;;0.98;0.80;;;;;;;;;;5020518;28;20627;-46
2023/05/10 07:00:09;;;;;;;3.90;0.98;;;;;;;;;;5019607;28;20044;-45
2023/05/10 07:02:35;;;;;;;2.67;0.90;;;;;;;;;;5016980;28;20061;-48
2023/05/10 07:05:00;;;;;;;5.40;1.33;;;;;;;;;;5020148;28;20490;-47
2023/05/10 07:07:27;;;;;;;1.92;1.20;;;;;;;;;;5020774;28;20510;-43
2023/05/10 07:09:53;;;;;;;8.15;1.15;;;;;;;;;;5020946;28;20033;-48
2023/05/10 07:12:18;;;;;;;2.70;0.73;;;;;;;;;;5023045;28;20124;-47
2023/05/10 07:14:43;;;;;;;5.07;0.85;;;;;;;;;;5022609;28;20095;-45
2023/05/10 07:17:09;;;;;;;3.50;1.20;;;;;;;;;;5020642;28;20127;-45
2023/05/10 07:19:35;;;;;;;1.98;0.85;;;;;;;;;;5019489;28;20146;-50
2023/05/10 07:22:01;;;;;;;3.03;0.80;;;;;;;;;;5021399;28;20460;-48
2023/05/10 07:24:27;;;;;;;3.58;0.82;;;;;;;;;;5021080;28;20030;-49
2023/05/10 07:26:52;;;;;;;5.20;0.90;;;;;;;;;;5020385;28;20042;-46
2023/05/10 07:29:17;;;;;;;0.73;0.55;;;;;;;;;;5022287;28;20026;-45
2023/05/10 07:31:43;;;;;;;5.57;0.82;;;;;;;;;;5019726;28;20049;-48
2023/05/10 07:34:09;;;;;;;3.83;1.10;;;;;;;;;;5019850;28;20538;-45
2023/05/10 07:36:34;;;;;;;1.83;0.80;;;;;;;;;;5018995;28;20037;-52
2023/05/10 07:39:00;;;;;;;1.52;0.90;;;;;;;;;;5021950;28;20026;-50
2023/05/10 07:41:25;;;;;;;1.40;0.57;;;;;;;;;;5023059;28;20036;-46
2023/05/10 07:43:51;;;;;;;1.45;1.17;;;;;;;;;;5023586;28;20032;-49
2023/05/10 07:46:16;;;;;;;2.78;1.00;;;;;;;;;;5025836;28;20055;-48
2023/05/10 07:48:42;;;;;;;0.80;0.70;;;;;;;;;;5025744;28;20088;-48
2023/05/10 07:51:09;;;;;;;3.42;0.88;;;;;;;;;;5022502;28;20467;-46
2023/05/10 07:53:34;;;;;;;4.53;1.00;;;;;;;;;;5025407;28;20040;-49
2023/05/10 07:56:27;;;;;;;1.50;0.90;;;;;;;;;;5020573;28;20452;-46
2023/05/10 07:58:53;;;;;;;1.27;0.70;;;;;;;;;;5020400;28;20057;-45
2023/05/10 08:01:19;;;;;;;3.20;1.27;;;;;;;;;;5025219;28;20036;-47
2023/05/10 08:03:45;;;;;;;3.63;0.82;;;;;;;;;;5023133;28;20029;-51
2023/05/10 08:06:10;;;;;;;3.35;1.13;;;;;;;;;;5022524;28;20520;-46
2023/05/10 08:08:35;;;;;;;4.65;1.30;;;;;;;;;;5023662;28;20030;-48
2023/05/10 08:11:01;;;;;;;4.15;0.82;;;;;;;;;;5024221;28;20091;-47
2023/05/10 08:13:26;;;;;;;1.42;0.80;;;;;;;;;;5021552;28;20025;-43
2023/05/10 08:15:52;;;;;;;8.88;1.00;;;;;;;;;;5023301;28;20045;-45
2023/05/10 08:18:19;;;;;;;4.82;0.55;;;;;;;;;;5023589;28;20501;-44
2023/05/10 08:20:44;;;;;;;2.55;0.60;;;;;;;;;;5025070;28;20041;-45
2023/05/10 08:23:09;;;;;;;2.30;0.80;;;;;;;;;;5021217;28;20389;-43
2023/05/10 08:25:35;;;;;;;4.45;0.90;;;;;;;;;;5025359;28;20450;-47
2023/05/10 08:28:00;;;;;;;5.25;1.00;;;;;;;;;;5026420;28;20155;-50
2023/05/10 08:30:25;;;;;;;2.70;0.77;;;;;;;;;;5023318;28;20395;-50
2023/05/10 08:32:51;;;;;;;2.58;1.20;;;;;;;;;;5024826;28;20079;-44
2023/05/10 08:35:16;;;;;;;5.55;1.08;;;;;;;;;;5021903;28;20047;-47
2023/05/10 08:37:41;;;;;;;2.70;0.60;;;;;;;;;;5022445;28;20038;-45
2023/05/10 08:40:10;;;;;;;1.30;0.93;;;;;;;;;;5023267;28;20056;-49
2023/05/10 08:42:40;;;;;;;2.15;0.85;;;;;;;;;;5022452;28;20065;-46
2023/05/10 08:45:07;;;;;;;6.82;1.10;;;;;;;;;;5019966;28;20069;-50
2023/05/10 08:47:34;;;;;;;1.73;0.75;;;;;;;;;;5020255;28;20026;-49
2023/05/10 08:50:01;;;;;;;2.25;0.88;;;;;;;;;;5022541;28;20329;-47
2023/05/10 08:52:29;;;;;;;2.67;0.90;;;;;;;;;;5022149;28;20487;-49
2023/05/10 08:54:55;;;;;;;1.83;0.82;;;;;;;;;;5024216;28;20818;-43
2023/05/10 08:57:20;;;;;;;4.93;1.00;;;;;;;;;;5020738;28;20029;-51
2023/05/10 08:59:46;;;;;;;1.23;0.70;;;;;;;;;;5022780;28;20050;-46
2023/05/10 09:02:13;;;;;;;6.95;1.02;;;;;;;;;;5023104;28;20245;-49
2023/05/10 09:04:39;;;;;;;1.48;0.98;;;;;;;;;;5023917;28;20095;-45
2023/05/10 09:07:04;;;;;;;6.45;1.10;;;;;;;;;;5021242;28;20498;-46
2023/05/10 09:09:31;;;;;;;1.83;0.80;;;;;;;;;;5026364;28;20045;-48
2023/05/10 09:11:56;;;;;;;3.72;1.40;;;;;;;;;;5023799;28;20478;-50
2023/05/10 09:14:24;;;;;;;3.35;1.00;;;;;;;;;;5023165;28;20030;-50
2023/05/10 09:16:50;;;;;;;1.45;0.50;;;;;;;;;;5020666;28;20057;-46
2023/05/10 09:19:15;;;;;;;2.67;0.80;;;;;;;;;;5023651;28;20395;-46
2023/05/10 09:21:41;;;;;;;7.30;0.75;;;;;;;;;;5025141;28;20043;-53
2023/05/10 09:24:07;;;;;;;2.25;1.27;;;;;;;;;;5021740;28;20390;-49
2023/05/10 09:26:35;;;;;;;1.90;0.80;;;;;;;;;;5019368;28;20044;-50
2023/05/10 09:29:02;;;;;;;2.97;1.23;;;;;;;;;;5022530;28;20378;-49
2023/05/10 09:31:46;;;;;;;3.70;0.93;;;;;;;;;;5023752;28;20025;-48
2023/05/10 09:34:16;;;;;;;5.35;0.90;;;;;;;;;;5024386;28;20371;-45
2023/05/10 09:36:52;;;;;;;11.05;1.13;;;;;;;;;;5021271;28;20033;-45
2023/05/10 09:39:18;;;;;;;18.95;2.30;;;;;;;;;;5021517;28;20021;-44
2023/05/10 09:41:43;;;;;;;13.45;1.10;;;;;;;;;;5023556;28;20041;-46
2023/05/10 09:44:09;;;;;;;8.15;1.15;;;;;;;;;;5023365;28;20037;-44
2023/05/10 09:46:37;;;;;;;2.35;1.17;;;;;;;;;;5023328;28;20159;-48
2023/05/10 09:49:03;;;;;;;5.72;1.13;;;;;;;;;;5022762;28;20036;-49
2023/05/10 09:51:29;;;;;;;6.85;1.48;;;;;;;;;;5018356;28;20033;-43
2023/05/10 09:54:15;;;;;;;7.15;1.10;;;;;;;;;;5022825;28;20041;-44
2023/05/10 09:56:41;;;;;;;3.63;1.33;;;;;;;;;;5021979;28;20041;-48
2023/05/10 09:59:09;;;;;;;5.57;0.93;;;;;;;;;;5022714;28;20494;-51
2023/05/10 10:01:35;;;;;;;3.53;1.15;;;;;;;;;;5020211;28;20033;-46
2023/05/10 10:04:05;;;;;;;3.35;0.95;;;;;;;;;;5021674;28;20056;-48
2023/05/10 10:06:38;;;;;;;2.47;1.25;;;;;;;;;;5023422;28;20127;-43
2023/05/10 10:09:05;;;;;;;2.28;1.23;;;;;;;;;;5018617;28;20037;-47
2023/05/10 10:11:31;;;;;;;7.43;1.20;;;;;;;;;;5021502;28;20042;-44
2023/05/10 10:13:56;;;;;;;2.97;1.08;;;;;;;;;;5022804;28;20033;-44
2023/05/10 10:16:22;;;;;;;3.75;1.38;;;;;;;;;;5022687;28;20041;-43
2023/05/10 10:18:48;;;;;;;8.20;1.83;;;;;;;;;;5020613;28;20112;-46
2023/05/10 10:21:15;;;;;;;3.95;1.42;;;;;;;;;;5018423;28;20047;-44
2023/05/10 10:23:40;;;;;;;1.92;0.88;;;;;;;;;;5021745;28;20033;-43
2023/05/10 10:26:07;;;;;;;5.30;1.08;;;;;;;;;;5017584;28;20398;-43
2023/05/10 10:28:58;;;;;;;3.38;1.23;;;;;;;;;;5024004;28;20470;-52
2023/05/10 10:31:50;;;;;;;7.82;0.93;;;;;;;;;;5020726;28;20088;-46
2023/05/10 10:34:26;;;;;;;6.22;1.10;;;;;;;;;;5020589;28;20053;-43
2023/05/10 10:36:52;;;;;;;2.97;0.98;;;;;;;;;;5016826;28;20042;-40
2023/05/10 10:39:19;;;;;;;2.00;0.85;;;;;;;;;;5021597;28;20109;-47
2023/05/10 10:41:56;;;;;;;7.78;1.98;;;;;;;;;;5023968;28;20068;-47
2023/05/10 10:44:29;;;;;;;2.35;1.35;;;;;;;;;;5022426;28;20398;-45
2023/05/10 10:47:24;;;;;;;3.53;1.10;;;;;;;;;;5020979;28;20053;-46
2023/05/10 10:50:10;;;;;;;1.50;0.95;;;;;;;;;;5020115;28;20029;-44
2023/05/10 10:52:53;;;;;;;3.03;1.10;;;;;;;;;;5022055;28;20037;-45
2023/05/10 10:55:24;;;;;;;4.65;0.93;;;;;;;;;;5018843;28;20037;-44
2023/05/10 10:58:00;;;;;;;7.72;1.80;;;;;;;;;;5023399;28;20033;-43
2023/05/10 11:00:26;;;;;;;2.80;0.95;;;;;;;;;;5021377;28;20032;-43
2023/05/10 11:03:06;;;;;;;2.78;0.80;;;;;;;;;;5020626;28;20033;-43
2023/05/10 11:05:44;;;;;;;1.70;1.10;;;;;;;;;;5020454;28;20030;-46
2023/05/10 11:08:14;;;;;;;1.95;1.00;;;;;;;;;;5021107;28;20026;-52
2023/05/10 11:10:48;;;;;;;1.92;1.02;;;;;;;;;;5020215;28;20068;-43
2023/05/10 11:13:13;;;;;;;4.82;1.10;;;;;;;;;;5019220;28;20037;-46
2023/05/10 11:15:40;;;;;;;6.55;1.08;;;;;;;;;;5022929;28;20046;-46
2023/05/10 11:18:28;;;;;;;2.92;1.02;;;;;;;;;;5025703;28;20033;-44
2023/05/10 11:21:09;;;;;;;6.97;1.58;;;;;;;;;;5026646;28;20034;-44
2023/05/10 11:23:43;;;;;;;2.78;1.27;;;;;;;;;;5025299;28;20091;-45
2023/05/10 11:26:09;;;;;;;5.20;1.40;;;;;;;;;;5023691;28;20048;-45
2023/05/10 11:28:41;;;;;;;1.30;0.90;;;;;;;;;;5023191;28;20029;-44
2023/05/10 11:31:06;;;;;;;4.53;1.15;;;;;;;;;;5023239;28;20037;-46
2023/05/10 11:33:44;;;;;;;3.40;1.55;;;;;;;;;;5025263;28;20036;-45
2023/05/10 11:36:21;;;;;;;7.13;1.30;;;;;;;;;;5023592;28;20037;-46
2023/05/10 11:38:48;;;;;;;11.88;1.40;;;;;;;;;;5024475;28;20088;-45
2023/05/10 11:41:15;;;;;;;2.13;1.00;;;;;;;;;;5021910;28;20038;-44
2023/05/10 11:43:41;;;;;;;1.40;0.70;;;;;;;;;;5025263;28;20041;-48
2023/05/10 11:46:09;;;;;;;7.45;1.08;;;;;;;;;;5025200;28;20501;-45
2023/05/10 11:48:35;;;;;;;3.90;1.20;;;;;;;;;;5022860;28;20425;-51
2023/05/10 11:51:01;;;;;;;2.88;0.95;;;;;;;;;;5018783;28;20108;-46
2023/05/10 11:53:27;;;;;;;2.17;0.85;;;;;;;;;;5025212;28;20176;-45
2023/05/10 11:55:53;;;;;;;3.58;0.80;;;;;;;;;;5027338;28;20046;-45
2023/05/10 11:58:19;;;;;;;3.05;0.80;;;;;;;;;;5022756;28;21106;-43
2023/05/10 12:00:45;;;;;;;3.90;1.23;;;;;;;;;;5022839;28;20052;-49
2023/05/10 12:03:11;;;;;;;7.32;1.20;;;;;;;;;;5022494;28;20148;-47
2023/05/10 12:05:37;;;;;;;3.33;1.00;;;;;;;;;;5022923;28;20092;-46
2023/05/10 12:08:14;;;;;;;3.13;0.95;;;;;;;;;;5022551;28;20600;-44
2023/05/10 12:10:39;;;;;;;3.45;1.30;;;;;;;;;;5023031;28;20049;-45
2023/05/10 12:13:05;;;;;;;1.30;0.80;;;;;;;;;;5026017;28;20032;-43
2023/05/10 12:15:30;;;;;;;4.80;0.88;;;;;;;;;;5023898;28;20033;-48
2023/05/10 12:17:57;;;;;;;3.33;0.93;;;;;;;;;;5022118;28;20440;-44
2023/05/10 12:20:24;;;;;;;3.17;0.82;;;;;;;;;;5021936;28;20041;-51
2023/05/10 12:22:53;;;;;;;5.35;1.05;;;;;;;;;;5025250;28;20526;-46
2023/05/10 12:25:20;;;;;;;6.13;0.98;;;;;;;;;;5023068;28;20043;-45
2023/05/10 12:27:53;;;;;;;5.85;1.15;;;;;;;;;;5022470;28;20112;-49
2023/05/10 12:30:30;;;;;;;3.22;0.90;;;;;;;;;;5023716;28;20030;-44
2023/05/10 12:33:11;;;;;;;2.50;0.98;;;;;;;;;;5025087;28;20026;-46
2023/05/10 12:35:51;;;;;;;0.73;0.52;;;;;;;;;;5022903;28;20042;-42
2023/05/10 12:38:30;;;;;;;4.53;0.90;;;;;;;;;;5023479;28;20434;-43
2023/05/10 12:41:03;;;;;;;2.65;0.98;;;;;;;;;;5023847;28;20116;-42
2023/05/10 12:43:29;;;;;;;10.70;1.23;;;;;;;;;;5022289;28;20025;-44
2023/05/10 12:45:55;;;;;;;6.95;0.95;;;;;;;;;;5024988;28;20041;-43
2023/05/10 12:48:20;;;;;;;2.53;1.00;;;;;;;;;;5021549;28;20029;-43
2023/05/10 12:50:46;;;;;;;2.63;0.82;;;;;;;;;;5025074;28;20114;-42
2023/05/10 12:53:15;;;;;;;5.47;1.20;;;;;;;;;;5022943;28;20063;-45
2023/05/10 12:55:41;;;;;;;5.60;0.98;;;;;;;;;;5023139;28;20041;-42
2023/05/10 12:58:07;;;;;;;10.32;1.20;;;;;;;;;;5022080;28;20060;-43
2023/05/10 13:00:32;;;;;;;8.57;1.45;;;;;;;;;;5022521;28;20026;-43
2023/05/10 13:02:57;;;;;;;1.92;0.75;;;;;;;;;;5022299;28;20569;-44
2023/05/10 13:05:23;;;;;;;3.25;1.00;;;;;;;;;;5023284;28;20030;-42
2023/05/10 13:07:48;;;;;;;5.10;0.77;;;;;;;;;;5024215;28;20025;-45
2023/05/10 13:10:14;;;;;;;2.08;0.90;;;;;;;;;;5024308;28;20025;-45
2023/05/10 13:12:39;;;;;;;6.75;1.05;;;;;;;;;;5023934;28;20072;-43
2023/05/10 13:15:05;;;;;;;4.40;1.27;;;;;;;;;;5024268;28;20036;-44
2023/05/10 13:17:30;;;;;;;1.50;0.63;;;;;;;;;;5023429;28;20124;-43
2023/05/10 13:19:56;;;;;;;1.48;1.05;;;;;;;;;;5023195;28;20116;-46
2023/05/10 13:22:21;;;;;;;4.40;0.98;;;;;;;;;;5023420;28;20123;-43
2023/05/10 13:24:47;;;;;;;3.97;1.13;;;;;;;;;;5024109;28;20040;-43
2023/05/10 13:27:12;;;;;;;6.55;0.98;;;;;;;;;;5025066;28;20060;-43
2023/05/10 13:29:37;;;;;;;3.95;0.93;;;;;;;;;;5021554;28;20029;-43
2023/05/10 13:32:03;;;;;;;7.88;1.08;;;;;;;;;;5022456;28;20042;-45
2023/05/10 13:34:28;;;;;;;4.20;0.85;;;;;;;;;;5019767;28;20033;-46
2023/05/10 13:36:55;;;;;;;2.58;0.93;;;;;;;;;;5022602;28;20056;-46
2023/05/10 13:39:20;;;;;;;4.88;1.02;;;;;;;;;;5021552;28;20118;-44
2023/05/10 13:41:46;;;;;;;4.00;1.05;;;;;;;;;;5022477;28;20871;-44
2023/05/10 13:44:14;;;;;;;6.43;1.10;;;;;;;;;;5022811;28;20025;-42
2023/05/10 13:46:40;;;;;;;7.03;0.90;;;;;;;;;;5019721;28;20092;-42
2023/05/10 13:49:05;;;;;;;2.35;1.08;;;;;;;;;;5023091;28;20033;-43
2023/05/10 13:51:31;;;;;;;2.33;0.90;;;;;;;;;;5025504;28;20458;-42
2023/05/10 13:53:57;;;;;;;3.05;1.10;;;;;;;;;;5024040;28;20025;-43
2023/05/10 13:56:23;;;;;;;4.32;1.08;;;;;;;;;;5021645;28;20375;-49
2023/05/10 13:58:48;;;;;;;2.30;1.00;;;;;;;;;;5024072;28;20083;-44
2023/05/10 14:01:13;;;;;;;1.00;0.82;;;;;;;;;;5016848;28;20096;-51
2023/05/10 14:03:39;;;;;;;2.60;0.80;;;;;;;;;;5021781;28;20033;-43
2023/05/10 14:06:04;;;;;;;3.67;0.65;;;;;;;;;;5020198;28;20045;-46
2023/05/10 14:08:30;;;;;;;4.47;0.80;;;;;;;;;;5021900;28;20052;-44
2023/05/10 14:10:56;;;;;;;1.10;0.55;;;;;;;;;;5021929;28;20166;-43
2023/05/10 14:13:22;;;;;;;4.10;1.13;;;;;;;;;;5023649;28;20044;-46
2023/05/10 14:15:47;;;;;;;0.95;0.70;;;;;;;;;;5022772;28;20037;-48
2023/05/10 14:18:12;;;;;;;8.05;0.80;;;;;;;;;;5021763;28;20025;-42
2023/05/10 14:20:38;;;;;;;7.05;1.10;;;;;;;;;;5023549;28;20042;-44
2023/05/10 14:23:03;;;;;;;6.63;1.05;;;;;;;;;;5022079;28;20467;-43
2023/05/10 14:25:29;;;;;;;5.63;1.05;;;;;;;;;;5022232;28;20039;-46
2023/05/10 14:27:54;;;;;;;3.92;1.00;;;;;;;;;;5022455;28;20037;-43
2023/05/10 14:30:20;;;;;;;8.35;0.90;;;;;;;;;;5023158;28;20063;-42
2023/05/10 14:32:45;;;;;;;4.65;1.17;;;;;;;;;;5022303;28;20034;-43
2023/05/10 14:35:12;;;;;;;2.97;0.90;;;;;;;;;;5022608;28;20436;-42
2023/05/10 14:37:38;;;;;;;4.78;0.77;;;;;;;;;;5021607;28;20044;-45
2023/05/10 14:40:04;;;;;;;1.45;1.05;;;;;;;;;;5021804;28;20386;-43
2023/05/10 14:42:29;;;;;;;7.45;0.70;;;;;;;;;;5023294;28;20029;-43
2023/05/10 14:44:55;;;;;;;3.88;0.90;;;;;;;;;;5019673;28;20025;-44
2023/05/10 14:47:20;;;;;;;4.30;1.02;;;;;;;;;;5022182;28;20037;-46